sensor_id;sensor_type;location;lat;lon;timestamp;P1;durP1;ratioP1;P2;durP2;ratioP2
21166;SDS011;10741;52.272;9.580;2022-11-20T00:00:47;11.23;;;6.87;;
21166;SDS011;10741;52.272;9.580;2022-11-20T00:03:13;12.60;;;6.40;;
21166;SDS011;10741;52.272;9.580;2022-11-20T00:05:39;11.63;;;7.00;;
21166;SDS011;10741;52.272;9.580;2022-11-20T00:08:04;12.63;;;7.17;;
21166;SDS011;10741;52.272;9.580;2022-11-20T00:10:30;12.40;;;7.03;;
21166;SDS011;10741;52.272;9.580;2022-11-20T00:12:59;10.13;;;6.03;;
21166;SDS011;10741;52.272;9.580;2022-11-20T00:15:25;13.30;;;7.57;;
21166;SDS011;10741;52.272;9.580;2022-11-20T00:17:50;11.60;;;7.00;;
21166;SDS011;10741;52.272;9.580;2022-11-20T00:20:16;12.87;;;6.80;;
21166;SDS011;10741;52.272;9.580;2022-11-20T00:22:42;11.70;;;6.53;;
21166;SDS011;10741;52.272;9.580;2022-11-20T00:25:08;10.73;;;5.97;;
21166;SDS011;10741;52.272;9.580;2022-11-20T00:27:34;14.60;;;7.30;;
21166;SDS011;10741;52.272;9.580;2022-11-20T00:29:59;13.03;;;7.40;;
21166;SDS011;10741;52.272;9.580;2022-11-20T00:32:25;11.23;;;6.37;;
21166;SDS011;10741;52.272;9.580;2022-11-20T00:34:51;13.90;;;7.57;;
21166;SDS011;10741;52.272;9.580;2022-11-20T00:37:16;11.47;;;6.57;;
21166;SDS011;10741;52.272;9.580;2022-11-20T00:39:42;10.43;;;6.47;;
21166;SDS011;10741;52.272;9.580;2022-11-20T00:42:08;12.90;;;6.60;;
21166;SDS011;10741;52.272;9.580;2022-11-20T00:44:33;9.60;;;5.67;;
21166;SDS011;10741;52.272;9.580;2022-11-20T00:46:59;15.27;;;6.17;;
21166;SDS011;10741;52.272;9.580;2022-11-20T00:49:25;10.40;;;6.20;;
21166;SDS011;10741;52.272;9.580;2022-11-20T00:51:50;8.63;;;5.93;;
21166;SDS011;10741;52.272;9.580;2022-11-20T00:54:16;10.77;;;5.70;;
21166;SDS011;10741;52.272;9.580;2022-11-20T00:56:42;8.83;;;5.60;;
21166;SDS011;10741;52.272;9.580;2022-11-20T00:59:08;9.13;;;5.40;;
21166;SDS011;10741;52.272;9.580;2022-11-20T01:01:35;8.83;;;5.10;;
21166;SDS011;10741;52.272;9.580;2022-11-20T01:04:01;7.23;;;4.23;;
21166;SDS011;10741;52.272;9.580;2022-11-20T01:06:29;7.97;;;4.47;;
21166;SDS011;10741;52.272;9.580;2022-11-20T01:08:57;5.77;;;3.63;;
21166;SDS011;10741;52.272;9.580;2022-11-20T01:11:26;8.43;;;4.60;;
21166;SDS011;10741;52.272;9.580;2022-11-20T01:13:57;8.43;;;4.63;;
21166;SDS011;10741;52.272;9.580;2022-11-20T01:16:30;8.53;;;4.60;;
21166;SDS011;10741;52.272;9.580;2022-11-20T01:18:59;5.97;;;4.00;;
21166;SDS011;10741;52.272;9.580;2022-11-20T01:21:27;6.07;;;4.27;;
21166;SDS011;10741;52.272;9.580;2022-11-20T01:23:54;5.30;;;3.50;;
21166;SDS011;10741;52.272;9.580;2022-11-20T01:26:21;5.90;;;3.40;;
21166;SDS011;10741;52.272;9.580;2022-11-20T01:28:49;5.03;;;3.47;;
21166;SDS011;10741;52.272;9.580;2022-11-20T01:31:16;6.23;;;3.87;;
21166;SDS011;10741;52.272;9.580;2022-11-20T01:33:43;7.17;;;4.00;;
21166;SDS011;10741;52.272;9.580;2022-11-20T01:36:10;4.77;;;3.50;;
21166;SDS011;10741;52.272;9.580;2022-11-20T01:38:37;4.63;;;3.00;;
21166;SDS011;10741;52.272;9.580;2022-11-20T01:41:03;4.70;;;3.37;;
21166;SDS011;10741;52.272;9.580;2022-11-20T01:43:30;5.87;;;2.97;;
21166;SDS011;10741;52.272;9.580;2022-11-20T01:45:56;4.20;;;3.40;;
21166;SDS011;10741;52.272;9.580;2022-11-20T01:48:24;3.90;;;2.87;;
21166;SDS011;10741;52.272;9.580;2022-11-20T01:50:54;5.67;;;3.40;;
21166;SDS011;10741;52.272;9.580;2022-11-20T01:53:21;4.97;;;3.57;;
21166;SDS011;10741;52.272;9.580;2022-11-20T01:55:53;5.43;;;3.63;;
21166;SDS011;10741;52.272;9.580;2022-11-20T01:58:29;8.33;;;4.10;;
21166;SDS011;10741;52.272;9.580;2022-11-20T02:00:58;7.17;;;4.20;;
21166;SDS011;10741;52.272;9.580;2022-11-20T02:03:24;8.20;;;3.53;;
21166;SDS011;10741;52.272;9.580;2022-11-20T02:08:26;5.73;;;3.40;;
21166;SDS011;10741;52.272;9.580;2022-11-20T02:10:51;4.60;;;3.10;;
21166;SDS011;10741;52.272;9.580;2022-11-20T02:13:17;4.33;;;2.63;;
21166;SDS011;10741;52.272;9.580;2022-11-20T02:16:02;5.50;;;3.30;;
21166;SDS011;10741;52.272;9.580;2022-11-20T02:18:29;5.63;;;3.03;;
21166;SDS011;10741;52.272;9.580;2022-11-20T02:20:59;4.27;;;2.53;;
21166;SDS011;10741;52.272;9.580;2022-11-20T02:24:00;3.23;;;2.20;;
21166;SDS011;10741;52.272;9.580;2022-11-20T02:29:12;3.70;;;2.57;;
21166;SDS011;10741;52.272;9.580;2022-11-20T02:31:41;6.03;;;2.77;;
21166;SDS011;10741;52.272;9.580;2022-11-20T02:34:08;4.57;;;2.30;;
21166;SDS011;10741;52.272;9.580;2022-11-20T02:36:34;2.50;;;1.97;;
21166;SDS011;10741;52.272;9.580;2022-11-20T02:39:02;3.20;;;2.20;;
21166;SDS011;10741;52.272;9.580;2022-11-20T02:41:36;4.23;;;2.37;;
21166;SDS011;10741;52.272;9.580;2022-11-20T02:44:03;3.23;;;2.43;;
21166;SDS011;10741;52.272;9.580;2022-11-20T02:46:30;4.03;;;2.30;;
21166;SDS011;10741;52.272;9.580;2022-11-20T02:48:56;2.50;;;2.00;;
21166;SDS011;10741;52.272;9.580;2022-11-20T02:51:22;4.63;;;2.13;;
21166;SDS011;10741;52.272;9.580;2022-11-20T02:53:48;3.17;;;1.97;;
21166;SDS011;10741;52.272;9.580;2022-11-20T02:56:14;2.83;;;1.67;;
21166;SDS011;10741;52.272;9.580;2022-11-20T02:58:40;2.80;;;1.90;;
21166;SDS011;10741;52.272;9.580;2022-11-20T03:01:06;2.40;;;1.60;;
21166;SDS011;10741;52.272;9.580;2022-11-20T03:03:32;3.03;;;1.90;;
21166;SDS011;10741;52.272;9.580;2022-11-20T03:05:58;2.73;;;2.00;;
21166;SDS011;10741;52.272;9.580;2022-11-20T03:08:25;3.13;;;2.00;;
21166;SDS011;10741;52.272;9.580;2022-11-20T03:10:51;3.57;;;2.00;;
21166;SDS011;10741;52.272;9.580;2022-11-20T03:13:17;2.60;;;2.10;;
21166;SDS011;10741;52.272;9.580;2022-11-20T03:15:42;2.87;;;1.83;;
21166;SDS011;10741;52.272;9.580;2022-11-20T03:18:08;2.60;;;1.80;;
21166;SDS011;10741;52.272;9.580;2022-11-20T03:20:34;2.73;;;2.23;;
21166;SDS011;10741;52.272;9.580;2022-11-20T03:23:00;3.97;;;2.37;;
21166;SDS011;10741;52.272;9.580;2022-11-20T03:25:26;2.47;;;2.07;;
21166;SDS011;10741;52.272;9.580;2022-11-20T03:27:52;2.40;;;2.00;;
21166;SDS011;10741;52.272;9.580;2022-11-20T03:30:18;2.83;;;2.00;;
21166;SDS011;10741;52.272;9.580;2022-11-20T03:32:44;4.83;;;3.00;;
21166;SDS011;10741;52.272;9.580;2022-11-20T03:35:09;5.80;;;2.67;;
21166;SDS011;10741;52.272;9.580;2022-11-20T03:37:35;10.23;;;4.10;;
21166;SDS011;10741;52.272;9.580;2022-11-20T03:40:01;12.20;;;4.27;;
21166;SDS011;10741;52.272;9.580;2022-11-20T03:42:27;10.03;;;5.00;;
21166;SDS011;10741;52.272;9.580;2022-11-20T03:45:14;9.43;;;4.93;;
21166;SDS011;10741;52.272;9.580;2022-11-20T03:47:42;9.63;;;4.17;;
21166;SDS011;10741;52.272;9.580;2022-11-20T03:50:08;3.83;;;2.37;;
21166;SDS011;10741;52.272;9.580;2022-11-20T03:52:37;3.07;;;2.47;;
21166;SDS011;10741;52.272;9.580;2022-11-20T03:55:03;2.93;;;1.80;;
21166;SDS011;10741;52.272;9.580;2022-11-20T03:57:30;2.30;;;1.80;;
21166;SDS011;10741;52.272;9.580;2022-11-20T03:59:56;2.17;;;1.70;;
21166;SDS011;10741;52.272;9.580;2022-11-20T04:02:21;2.90;;;2.07;;
21166;SDS011;10741;52.272;9.580;2022-11-20T04:04:47;5.63;;;2.40;;
21166;SDS011;10741;52.272;9.580;2022-11-20T04:07:13;3.17;;;2.30;;
21166;SDS011;10741;52.272;9.580;2022-11-20T04:09:39;3.53;;;2.33;;
21166;SDS011;10741;52.272;9.580;2022-11-20T04:12:05;3.00;;;2.30;;
21166;SDS011;10741;52.272;9.580;2022-11-20T04:14:30;3.60;;;2.57;;
21166;SDS011;10741;52.272;9.580;2022-11-20T04:16:56;4.60;;;2.87;;
21166;SDS011;10741;52.272;9.580;2022-11-20T04:19:22;6.10;;;2.60;;
21166;SDS011;10741;52.272;9.580;2022-11-20T04:21:47;6.70;;;2.97;;
21166;SDS011;10741;52.272;9.580;2022-11-20T04:24:13;6.67;;;3.23;;
21166;SDS011;10741;52.272;9.580;2022-11-20T04:26:39;4.83;;;3.40;;
21166;SDS011;10741;52.272;9.580;2022-11-20T04:29:05;4.87;;;3.07;;
21166;SDS011;10741;52.272;9.580;2022-11-20T04:31:32;4.90;;;2.90;;
21166;SDS011;10741;52.272;9.580;2022-11-20T04:34:02;3.90;;;2.43;;
21166;SDS011;10741;52.272;9.580;2022-11-20T04:36:30;3.67;;;2.20;;
21166;SDS011;10741;52.272;9.580;2022-11-20T04:38:57;3.23;;;2.30;;
21166;SDS011;10741;52.272;9.580;2022-11-20T04:41:25;3.40;;;2.50;;
21166;SDS011;10741;52.272;9.580;2022-11-20T04:43:54;5.17;;;2.33;;
21166;SDS011;10741;52.272;9.580;2022-11-20T04:46:25;4.90;;;2.33;;
21166;SDS011;10741;52.272;9.580;2022-11-20T04:48:51;5.03;;;2.23;;
21166;SDS011;10741;52.272;9.580;2022-11-20T04:51:18;3.37;;;2.20;;
21166;SDS011;10741;52.272;9.580;2022-11-20T04:53:44;4.83;;;2.27;;
21166;SDS011;10741;52.272;9.580;2022-11-20T04:56:10;5.10;;;2.07;;
21166;SDS011;10741;52.272;9.580;2022-11-20T04:58:37;2.90;;;2.20;;
21166;SDS011;10741;52.272;9.580;2022-11-20T05:03:30;3.97;;;1.90;;
21166;SDS011;10741;52.272;9.580;2022-11-20T05:05:59;4.57;;;2.50;;
21166;SDS011;10741;52.272;9.580;2022-11-20T05:08:26;4.83;;;2.57;;
21166;SDS011;10741;52.272;9.580;2022-11-20T05:10:52;6.47;;;2.60;;
21166;SDS011;10741;52.272;9.580;2022-11-20T05:13:18;3.97;;;2.23;;
21166;SDS011;10741;52.272;9.580;2022-11-20T05:15:44;3.70;;;2.67;;
21166;SDS011;10741;52.272;9.580;2022-11-20T05:18:10;5.00;;;2.53;;
21166;SDS011;10741;52.272;9.580;2022-11-20T05:20:35;4.43;;;2.50;;
21166;SDS011;10741;52.272;9.580;2022-11-20T05:23:01;4.40;;;2.60;;
21166;SDS011;10741;52.272;9.580;2022-11-20T05:25:27;3.40;;;2.30;;
21166;SDS011;10741;52.272;9.580;2022-11-20T05:27:53;4.53;;;2.60;;
21166;SDS011;10741;52.272;9.580;2022-11-20T05:30:19;2.70;;;2.13;;
21166;SDS011;10741;52.272;9.580;2022-11-20T05:32:44;4.50;;;2.50;;
21166;SDS011;10741;52.272;9.580;2022-11-20T05:35:10;3.60;;;2.50;;
21166;SDS011;10741;52.272;9.580;2022-11-20T05:37:36;3.93;;;2.73;;
21166;SDS011;10741;52.272;9.580;2022-11-20T05:40:01;5.70;;;3.10;;
21166;SDS011;10741;52.272;9.580;2022-11-20T05:42:30;4.63;;;2.83;;
21166;SDS011;10741;52.272;9.580;2022-11-20T05:44:59;4.37;;;3.00;;
21166;SDS011;10741;52.272;9.580;2022-11-20T05:47:27;6.10;;;3.07;;
21166;SDS011;10741;52.272;9.580;2022-11-20T05:49:55;6.07;;;3.40;;
21166;SDS011;10741;52.272;9.580;2022-11-20T05:52:21;7.97;;;3.70;;
21166;SDS011;10741;52.272;9.580;2022-11-20T05:54:47;6.77;;;3.90;;
21166;SDS011;10741;52.272;9.580;2022-11-20T05:57:13;10.90;;;4.13;;
21166;SDS011;10741;52.272;9.580;2022-11-20T05:59:38;5.80;;;3.70;;
21166;SDS011;10741;52.272;9.580;2022-11-20T06:02:04;7.87;;;4.73;;
21166;SDS011;10741;52.272;9.580;2022-11-20T06:04:30;6.80;;;4.30;;
21166;SDS011;10741;52.272;9.580;2022-11-20T06:06:55;6.33;;;4.07;;
21166;SDS011;10741;52.272;9.580;2022-11-20T06:09:21;9.30;;;5.10;;
21166;SDS011;10741;52.272;9.580;2022-11-20T06:11:47;7.43;;;4.63;;
21166;SDS011;10741;52.272;9.580;2022-11-20T06:14:12;8.10;;;4.83;;
21166;SDS011;10741;52.272;9.580;2022-11-20T06:16:38;10.30;;;4.60;;
21166;SDS011;10741;52.272;9.580;2022-11-20T06:19:04;8.77;;;5.07;;
21166;SDS011;10741;52.272;9.580;2022-11-20T06:21:29;11.43;;;5.20;;
21166;SDS011;10741;52.272;9.580;2022-11-20T06:23:55;8.60;;;5.40;;
21166;SDS011;10741;52.272;9.580;2022-11-20T06:26:22;7.30;;;5.07;;
21166;SDS011;10741;52.272;9.580;2022-11-20T06:28:49;8.03;;;5.67;;
21166;SDS011;10741;52.272;9.580;2022-11-20T06:31:16;8.83;;;6.03;;
21166;SDS011;10741;52.272;9.580;2022-11-20T06:33:44;10.47;;;6.60;;
21166;SDS011;10741;52.272;9.580;2022-11-20T06:36:10;11.70;;;6.73;;
21166;SDS011;10741;52.272;9.580;2022-11-20T06:38:38;10.70;;;6.50;;
21166;SDS011;10741;52.272;9.580;2022-11-20T06:41:04;8.33;;;6.17;;
21166;SDS011;10741;52.272;9.580;2022-11-20T06:43:31;7.90;;;5.90;;
21166;SDS011;10741;52.272;9.580;2022-11-20T06:45:57;9.67;;;6.37;;
21166;SDS011;10741;52.272;9.580;2022-11-20T06:48:25;9.43;;;6.57;;
21166;SDS011;10741;52.272;9.580;2022-11-20T06:50:52;12.37;;;6.77;;
21166;SDS011;10741;52.272;9.580;2022-11-20T06:53:18;11.07;;;6.57;;
21166;SDS011;10741;52.272;9.580;2022-11-20T06:55:44;12.07;;;7.13;;
21166;SDS011;10741;52.272;9.580;2022-11-20T06:58:11;9.97;;;5.80;;
21166;SDS011;10741;52.272;9.580;2022-11-20T07:00:38;8.10;;;5.27;;
21166;SDS011;10741;52.272;9.580;2022-11-20T07:03:04;7.57;;;5.03;;
21166;SDS011;10741;52.272;9.580;2022-11-20T07:05:31;7.03;;;4.60;;
21166;SDS011;10741;52.272;9.580;2022-11-20T07:07:57;5.50;;;3.77;;
21166;SDS011;10741;52.272;9.580;2022-11-20T07:10:24;8.23;;;4.13;;
21166;SDS011;10741;52.272;9.580;2022-11-20T07:12:50;6.23;;;4.10;;
21166;SDS011;10741;52.272;9.580;2022-11-20T07:15:17;5.90;;;3.73;;
21166;SDS011;10741;52.272;9.580;2022-11-20T07:17:43;7.20;;;3.57;;
21166;SDS011;10741;52.272;9.580;2022-11-20T07:20:09;5.30;;;3.60;;
21166;SDS011;10741;52.272;9.580;2022-11-20T07:22:35;7.03;;;4.20;;
21166;SDS011;10741;52.272;9.580;2022-11-20T07:25:01;5.70;;;4.00;;
21166;SDS011;10741;52.272;9.580;2022-11-20T07:27:27;5.23;;;4.17;;
21166;SDS011;10741;52.272;9.580;2022-11-20T07:29:53;8.40;;;4.30;;
21166;SDS011;10741;52.272;9.580;2022-11-20T07:32:19;7.30;;;4.37;;
21166;SDS011;10741;52.272;9.580;2022-11-20T07:34:45;7.80;;;4.10;;
21166;SDS011;10741;52.272;9.580;2022-11-20T07:37:11;6.50;;;3.93;;
21166;SDS011;10741;52.272;9.580;2022-11-20T07:39:37;6.10;;;4.10;;
21166;SDS011;10741;52.272;9.580;2022-11-20T07:42:02;5.83;;;4.17;;
21166;SDS011;10741;52.272;9.580;2022-11-20T07:44:28;6.20;;;4.00;;
21166;SDS011;10741;52.272;9.580;2022-11-20T07:46:54;7.23;;;4.30;;
21166;SDS011;10741;52.272;9.580;2022-11-20T07:49:19;8.23;;;5.23;;
21166;SDS011;10741;52.272;9.580;2022-11-20T07:51:45;8.67;;;4.90;;
21166;SDS011;10741;52.272;9.580;2022-11-20T07:54:11;9.27;;;5.70;;
21166;SDS011;10741;52.272;9.580;2022-11-20T07:56:36;13.67;;;10.17;;
21166;SDS011;10741;52.272;9.580;2022-11-20T07:59:02;12.43;;;10.40;;
21166;SDS011;10741;52.272;9.580;2022-11-20T08:01:28;9.40;;;6.70;;
21166;SDS011;10741;52.272;9.580;2022-11-20T08:03:54;8.03;;;5.70;;
21166;SDS011;10741;52.272;9.580;2022-11-20T08:06:20;8.93;;;6.57;;
21166;SDS011;10741;52.272;9.580;2022-11-20T08:08:45;11.97;;;7.07;;
21166;SDS011;10741;52.272;9.580;2022-11-20T08:11:11;11.07;;;6.67;;
21166;SDS011;10741;52.272;9.580;2022-11-20T08:13:55;11.20;;;7.40;;
21166;SDS011;10741;52.272;9.580;2022-11-20T08:16:46;11.57;;;6.93;;
21166;SDS011;10741;52.272;9.580;2022-11-20T08:19:13;12.80;;;7.33;;
21166;SDS011;10741;52.272;9.580;2022-11-20T08:21:41;11.97;;;6.80;;
21166;SDS011;10741;52.272;9.580;2022-11-20T08:24:07;10.63;;;6.70;;
21166;SDS011;10741;52.272;9.580;2022-11-20T08:26:34;9.33;;;6.97;;
21166;SDS011;10741;52.272;9.580;2022-11-20T08:29:00;9.17;;;6.30;;
21166;SDS011;10741;52.272;9.580;2022-11-20T08:31:26;11.63;;;7.80;;
21166;SDS011;10741;52.272;9.580;2022-11-20T08:33:54;10.57;;;7.47;;
21166;SDS011;10741;52.272;9.580;2022-11-20T08:36:20;9.93;;;7.13;;
21166;SDS011;10741;52.272;9.580;2022-11-20T08:38:47;12.13;;;6.87;;
21166;SDS011;10741;52.272;9.580;2022-11-20T08:41:17;8.90;;;6.57;;
21166;SDS011;10741;52.272;9.580;2022-11-20T08:43:53;9.50;;;7.00;;
21166;SDS011;10741;52.272;9.580;2022-11-20T08:46:25;12.23;;;8.50;;
21166;SDS011;10741;52.272;9.580;2022-11-20T08:48:52;11.30;;;8.30;;
21166;SDS011;10741;52.272;9.580;2022-11-20T08:51:19;11.27;;;7.90;;
21166;SDS011;10741;52.272;9.580;2022-11-20T08:53:45;16.87;;;11.17;;
21166;SDS011;10741;52.272;9.580;2022-11-20T08:56:13;13.17;;;9.13;;
21166;SDS011;10741;52.272;9.580;2022-11-20T08:58:39;12.33;;;8.83;;
21166;SDS011;10741;52.272;9.580;2022-11-20T09:01:06;15.27;;;9.37;;
21166;SDS011;10741;52.272;9.580;2022-11-20T09:03:32;12.10;;;8.40;;
21166;SDS011;10741;52.272;9.580;2022-11-20T09:06:02;11.03;;;7.83;;
21166;SDS011;10741;52.272;9.580;2022-11-20T09:08:29;11.20;;;7.87;;
21166;SDS011;10741;52.272;9.580;2022-11-20T09:10:56;11.33;;;8.27;;
21166;SDS011;10741;52.272;9.580;2022-11-20T09:13:22;12.60;;;8.20;;
21166;SDS011;10741;52.272;9.580;2022-11-20T09:15:56;14.73;;;8.70;;
21166;SDS011;10741;52.272;9.580;2022-11-20T09:18:23;12.23;;;8.33;;
21166;SDS011;10741;52.272;9.580;2022-11-20T09:20:50;12.80;;;8.50;;
21166;SDS011;10741;52.272;9.580;2022-11-20T09:23:16;14.27;;;8.30;;
21166;SDS011;10741;52.272;9.580;2022-11-20T09:25:42;11.70;;;8.70;;
21166;SDS011;10741;52.272;9.580;2022-11-20T09:28:08;12.93;;;8.97;;
21166;SDS011;10741;52.272;9.580;2022-11-20T09:30:34;11.83;;;9.00;;
21166;SDS011;10741;52.272;9.580;2022-11-20T09:33:00;9.50;;;7.37;;
21166;SDS011;10741;52.272;9.580;2022-11-20T09:35:25;9.53;;;6.90;;
21166;SDS011;10741;52.272;9.580;2022-11-20T09:37:51;7.70;;;6.40;;
21166;SDS011;10741;52.272;9.580;2022-11-20T09:40:21;8.47;;;6.60;;
21166;SDS011;10741;52.272;9.580;2022-11-20T09:45:37;10.00;;;7.37;;
21166;SDS011;10741;52.272;9.580;2022-11-20T09:56:42;8.83;;;6.07;;
21166;SDS011;10741;52.272;9.580;2022-11-20T09:59:43;10.20;;;6.83;;
21166;SDS011;10741;52.272;9.580;2022-11-20T10:04:53;7.83;;;6.00;;
21166;SDS011;10741;52.272;9.580;2022-11-20T10:07:48;7.93;;;6.80;;
21166;SDS011;10741;52.272;9.580;2022-11-20T10:24:24;6.73;;;5.13;;
21166;SDS011;10741;52.272;9.580;2022-11-20T10:29:43;6.60;;;5.40;;
21166;SDS011;10741;52.272;9.580;2022-11-20T10:32:16;6.77;;;5.57;;
21166;SDS011;10741;52.272;9.580;2022-11-20T10:34:47;7.40;;;5.43;;
21166;SDS011;10741;52.272;9.580;2022-11-20T10:37:26;5.90;;;5.00;;
21166;SDS011;10741;52.272;9.580;2022-11-20T10:39:56;6.30;;;5.10;;
21166;SDS011;10741;52.272;9.580;2022-11-20T10:42:31;7.60;;;5.37;;
21166;SDS011;10741;52.272;9.580;2022-11-20T10:47:39;7.03;;;5.43;;
21166;SDS011;10741;52.272;9.580;2022-11-20T10:50:05;7.00;;;5.20;;
21166;SDS011;10741;52.272;9.580;2022-11-20T10:55:23;7.13;;;5.20;;
21166;SDS011;10741;52.272;9.580;2022-11-20T10:58:09;5.80;;;4.63;;
21166;SDS011;10741;52.272;9.580;2022-11-20T11:00:43;4.90;;;4.40;;
21166;SDS011;10741;52.272;9.580;2022-11-20T11:05:57;6.03;;;4.83;;
21166;SDS011;10741;52.272;9.580;2022-11-20T11:08:32;5.30;;;4.07;;
21166;SDS011;10741;52.272;9.580;2022-11-20T11:11:25;5.73;;;4.40;;
21166;SDS011;10741;52.272;9.580;2022-11-20T11:13:51;6.27;;;4.70;;
21166;SDS011;10741;52.272;9.580;2022-11-20T11:16:24;10.90;;;6.60;;
21166;SDS011;10741;52.272;9.580;2022-11-20T11:18:51;9.20;;;6.03;;
21166;SDS011;10741;52.272;9.580;2022-11-20T11:21:28;5.17;;;3.90;;
21166;SDS011;10741;52.272;9.580;2022-11-20T11:24:03;9.30;;;4.77;;
21166;SDS011;10741;52.272;9.580;2022-11-20T11:26:29;5.90;;;4.40;;
21166;SDS011;10741;52.272;9.580;2022-11-20T11:28:59;5.47;;;4.30;;
21166;SDS011;10741;52.272;9.580;2022-11-20T11:31:27;4.37;;;3.77;;
21166;SDS011;10741;52.272;9.580;2022-11-20T11:34:07;4.33;;;3.53;;
21166;SDS011;10741;52.272;9.580;2022-11-20T11:36:37;5.20;;;3.70;;
21166;SDS011;10741;52.272;9.580;2022-11-20T11:39:04;5.87;;;3.97;;
21166;SDS011;10741;52.272;9.580;2022-11-20T11:41:36;4.73;;;3.60;;
21166;SDS011;10741;52.272;9.580;2022-11-20T11:44:20;5.80;;;4.60;;
21166;SDS011;10741;52.272;9.580;2022-11-20T11:47:17;4.57;;;4.07;;
21166;SDS011;10741;52.272;9.580;2022-11-20T11:52:43;7.13;;;4.37;;
21166;SDS011;10741;52.272;9.580;2022-11-20T11:55:25;8.20;;;5.63;;
21166;SDS011;10741;52.272;9.580;2022-11-20T11:58:14;6.87;;;5.40;;
21166;SDS011;10741;52.272;9.580;2022-11-20T12:03:51;5.70;;;4.87;;
21166;SDS011;10741;52.272;9.580;2022-11-20T12:06:37;6.77;;;4.77;;
21166;SDS011;10741;52.272;9.580;2022-11-20T12:09:08;5.43;;;4.47;;
21166;SDS011;10741;52.272;9.580;2022-11-20T12:14:34;5.70;;;4.27;;
21166;SDS011;10741;52.272;9.580;2022-11-20T12:17:05;5.03;;;4.27;;
21166;SDS011;10741;52.272;9.580;2022-11-20T12:19:37;5.67;;;4.50;;
21166;SDS011;10741;52.272;9.580;2022-11-20T12:32:41;6.60;;;4.67;;
21166;SDS011;10741;52.272;9.580;2022-11-20T12:35:18;7.27;;;5.17;;
21166;SDS011;10741;52.272;9.580;2022-11-20T12:38:19;7.23;;;5.37;;
21166;SDS011;10741;52.272;9.580;2022-11-20T12:43:26;6.53;;;5.73;;
21166;SDS011;10741;52.272;9.580;2022-11-20T12:49:12;6.13;;;5.00;;
21166;SDS011;10741;52.272;9.580;2022-11-20T12:51:57;7.63;;;5.33;;
21166;SDS011;10741;52.272;9.580;2022-11-20T12:57:28;6.23;;;5.37;;
21166;SDS011;10741;52.272;9.580;2022-11-20T12:59:57;9.67;;;7.03;;
21166;SDS011;10741;52.272;9.580;2022-11-20T13:08:16;7.50;;;5.87;;
21166;SDS011;10741;52.272;9.580;2022-11-20T13:10:48;7.93;;;6.33;;
21166;SDS011;10741;52.272;9.580;2022-11-20T13:19:02;6.40;;;5.40;;
21166;SDS011;10741;52.272;9.580;2022-11-20T13:21:38;8.60;;;6.17;;
21166;SDS011;10741;52.272;9.580;2022-11-20T13:24:06;8.50;;;6.67;;
21166;SDS011;10741;52.272;9.580;2022-11-20T13:26:32;9.33;;;6.20;;
21166;SDS011;10741;52.272;9.580;2022-11-20T13:28:59;8.90;;;6.80;;
21166;SDS011;10741;52.272;9.580;2022-11-20T13:31:35;9.67;;;7.07;;
21166;SDS011;10741;52.272;9.580;2022-11-20T13:34:03;8.77;;;6.57;;
21166;SDS011;10741;52.272;9.580;2022-11-20T13:36:30;8.50;;;6.50;;
21166;SDS011;10741;52.272;9.580;2022-11-20T13:38:57;9.03;;;6.93;;
21166;SDS011;10741;52.272;9.580;2022-11-20T13:43:59;9.27;;;6.87;;
21166;SDS011;10741;52.272;9.580;2022-11-20T13:46:40;9.40;;;7.47;;
21166;SDS011;10741;52.272;9.580;2022-11-20T13:49:09;9.43;;;7.40;;
21166;SDS011;10741;52.272;9.580;2022-11-20T13:57:03;8.93;;;6.90;;
21166;SDS011;10741;52.272;9.580;2022-11-20T14:02:20;7.90;;;7.10;;
21166;SDS011;10741;52.272;9.580;2022-11-20T14:04:52;7.90;;;7.10;;
21166;SDS011;10741;52.272;9.580;2022-11-20T14:07:20;7.50;;;6.80;;
21166;SDS011;10741;52.272;9.580;2022-11-20T14:09:51;7.67;;;6.87;;
21166;SDS011;10741;52.272;9.580;2022-11-20T14:12:20;9.70;;;8.20;;
21166;SDS011;10741;52.272;9.580;2022-11-20T14:14:56;9.13;;;7.80;;
21166;SDS011;10741;52.272;9.580;2022-11-20T14:17:33;9.20;;;7.83;;
21166;SDS011;10741;52.272;9.580;2022-11-20T14:20:04;8.87;;;7.57;;
21166;SDS011;10741;52.272;9.580;2022-11-20T14:22:32;10.27;;;8.43;;
21166;SDS011;10741;52.272;9.580;2022-11-20T14:25:02;11.03;;;8.00;;
21166;SDS011;10741;52.272;9.580;2022-11-20T14:27:28;9.30;;;7.40;;
21166;SDS011;10741;52.272;9.580;2022-11-20T14:29:54;8.13;;;7.10;;
21166;SDS011;10741;52.272;9.580;2022-11-20T14:32:21;9.33;;;7.63;;
21166;SDS011;10741;52.272;9.580;2022-11-20T14:34:52;9.13;;;7.53;;
21166;SDS011;10741;52.272;9.580;2022-11-20T14:37:23;9.63;;;7.63;;
21166;SDS011;10741;52.272;9.580;2022-11-20T14:39:54;10.03;;;8.13;;
21166;SDS011;10741;52.272;9.580;2022-11-20T14:42:22;8.83;;;7.30;;
21166;SDS011;10741;52.272;9.580;2022-11-20T14:44:50;10.37;;;8.30;;
21166;SDS011;10741;52.272;9.580;2022-11-20T14:47:21;11.13;;;7.90;;
21166;SDS011;10741;52.272;9.580;2022-11-20T14:49:50;10.43;;;8.10;;
21166;SDS011;10741;52.272;9.580;2022-11-20T14:52:18;12.50;;;9.27;;
21166;SDS011;10741;52.272;9.580;2022-11-20T14:54:53;11.67;;;9.03;;
21166;SDS011;10741;52.272;9.580;2022-11-20T14:57:22;13.67;;;9.57;;
21166;SDS011;10741;52.272;9.580;2022-11-20T15:00:18;14.00;;;10.00;;
21166;SDS011;10741;52.272;9.580;2022-11-20T15:02:46;13.20;;;10.10;;
21166;SDS011;10741;52.272;9.580;2022-11-20T15:05:14;12.07;;;9.30;;
21166;SDS011;10741;52.272;9.580;2022-11-20T15:07:42;14.27;;;9.50;;
21166;SDS011;10741;52.272;9.580;2022-11-20T15:12:53;14.07;;;9.67;;
21166;SDS011;10741;52.272;9.580;2022-11-20T15:20:50;14.57;;;9.40;;
21166;SDS011;10741;52.272;9.580;2022-11-20T15:23:17;15.83;;;10.17;;
21166;SDS011;10741;52.272;9.580;2022-11-20T15:25:44;15.40;;;10.63;;
21166;SDS011;10741;52.272;9.580;2022-11-20T15:28:21;13.23;;;9.13;;
21166;SDS011;10741;52.272;9.580;2022-11-20T15:30:58;13.63;;;9.67;;
21166;SDS011;10741;52.272;9.580;2022-11-20T15:33:25;13.27;;;10.00;;
21166;SDS011;10741;52.272;9.580;2022-11-20T15:35:51;17.33;;;10.47;;
21166;SDS011;10741;52.272;9.580;2022-11-20T15:38:16;15.63;;;10.50;;
21166;SDS011;10741;52.272;9.580;2022-11-20T15:40:42;12.83;;;9.20;;
21166;SDS011;10741;52.272;9.580;2022-11-20T15:43:08;16.83;;;10.97;;
21166;SDS011;10741;52.272;9.580;2022-11-20T15:45:36;14.90;;;10.63;;
21166;SDS011;10741;52.272;9.580;2022-11-20T15:48:24;14.90;;;10.33;;
21166;SDS011;10741;52.272;9.580;2022-11-20T15:51:01;17.13;;;11.10;;
21166;SDS011;10741;52.272;9.580;2022-11-20T15:53:38;14.60;;;10.53;;
21166;SDS011;10741;52.272;9.580;2022-11-20T15:56:05;14.07;;;10.13;;
21166;SDS011;10741;52.272;9.580;2022-11-20T15:58:31;14.53;;;9.60;;
21166;SDS011;10741;52.272;9.580;2022-11-20T16:00:57;15.03;;;10.90;;
21166;SDS011;10741;52.272;9.580;2022-11-20T16:03:23;17.77;;;12.27;;
21166;SDS011;10741;52.272;9.580;2022-11-20T16:05:49;20.10;;;12.60;;
21166;SDS011;10741;52.272;9.580;2022-11-20T16:08:14;16.13;;;10.77;;
21166;SDS011;10741;52.272;9.580;2022-11-20T16:10:40;18.50;;;13.03;;
21166;SDS011;10741;52.272;9.580;2022-11-20T16:13:13;19.80;;;13.70;;
21166;SDS011;10741;52.272;9.580;2022-11-20T16:16:00;19.47;;;13.47;;
21166;SDS011;10741;52.272;9.580;2022-11-20T16:18:30;21.07;;;13.57;;
21166;SDS011;10741;52.272;9.580;2022-11-20T16:20:56;20.07;;;12.63;;
21166;SDS011;10741;52.272;9.580;2022-11-20T16:23:22;23.77;;;13.67;;
21166;SDS011;10741;52.272;9.580;2022-11-20T16:25:48;18.43;;;13.13;;
21166;SDS011;10741;52.272;9.580;2022-11-20T16:28:14;21.93;;;14.70;;
21166;SDS011;10741;52.272;9.580;2022-11-20T16:30:40;22.27;;;14.17;;
21166;SDS011;10741;52.272;9.580;2022-11-20T16:33:13;21.60;;;14.23;;
21166;SDS011;10741;52.272;9.580;2022-11-20T16:35:42;21.30;;;13.70;;
21166;SDS011;10741;52.272;9.580;2022-11-20T16:38:08;18.83;;;12.83;;